EDT,Max TemperatureF,Mean TemperatureF,Min TemperatureF,Max Dew PointF,MeanDew PointF,Min DewpointF,Max Humidity, Mean Humidity, Min Humidity, Max Sea Level PressureIn, Mean Sea Level PressureIn, Min Sea Level PressureIn, Max VisibilityMiles, Mean VisibilityMiles, Min VisibilityMiles, Max Wind SpeedMPH, Mean Wind SpeedMPH, Max Gust SpeedMPH,PrecipitationIn, CloudCover, Events, WindDirDegrees
2013-7-1,77,74,71,76,73,71,100,97,89,30.08,29.98,29.93,10,9,0,13,5,,0.74,8,Fog-Rain-Thunderstorm,171
2013-7-2,84,78,72,75,74,72,100,90,71,30.19,30.12,30.06,10,10,9,15,9,22,0.00,7,Rain,186
2013-7-3,88,80,72,74,73,72,100,86,61,30.24,30.19,30.16,10,10,10,16,9,24,0.00,4,,193
2013-7-4,91,81,71,76,73,72,100,88,52,30.24,30.19,30.11,10,9,6,16,6,22,0.00,3,,186
2013-7-5,92,82,72,75,74,71,100,76,51,30.19,30.13,30.06,10,10,10,16,8,23,0.00,0,,196
2013-7-6,90,81,72,75,73,70,100,79,53,30.12,30.07,30.01,10,10,10,13,5,,0.00,2,,264
2013-7-7,91,80,69,77,73,69,100,84,59,30.06,30.00,29.93,10,10,6,14,3,,0.07,3,Rain-Thunderstorm,107
2013-7-8,88,78,69,75,71,68,100,80,54,30.05,29.99,29.95,10,10,6,21,7,26,0.04,4,Rain-Thunderstorm,263
2013-7-9,82,74,68,73,70,68,100,93,74,30.11,30.06,30.02,10,8,2,6,3,,0.00,5,,82
2013-7-10,85,78,71,79,74,72,100,97,70,30.05,29.89,29.80,10,8,2,17,5,26,0.13,6,Rain-Thunderstorm,177
2013-7-11,84,76,68,76,71,63,100,92,52,29.96,29.83,29.78,10,5,1,10,3,,0.02,6,Rain,210
2013-7-12,82,72,65,64,61,57,85,67,54,30.20,30.10,29.96,10,10,10,13,8,21,0.00,4,Rain,49
2013-7-13,78,71,64,74,66,58,100,88,69,30.32,30.27,30.18,10,10,4,8,5,,0.02,8,Rain,22
2013-7-14,91,80,71,75,72,68,100,90,49,30.32,30.29,30.21,10,6,0,12,4,,0.00,6,Fog,20
2013-7-15,92,80,68,75,70,68,100,93,47,30.22,30.20,30.12,10,3,0,9,1,,0.00,1,Fog,4
2013-7-16,93,78,64,75,67,64,100,88,38,30.19,30.16,30.12,10,4,0,13,2,,0.00,0,Fog,24
2013-7-17,94,80,66,74,68,66,100,88,41,30.22,30.16,30.04,10,5,0,12,2,,0.00,0,Fog,35
2013-7-18,95,83,71,75,72,67,99,67,39,30.04,30.00,29.95,10,10,10,16,5,16,0.00,1,,257
2013-7-19,97,84,72,76,74,71,99,70,43,29.95,29.85,29.74,10,10,10,22,7,29,0.00,1,,213
2013-7-20,91,82,68,76,71,58,99,69,47,29.86,29.75,29.70,10,10,8,15,6,20,0.00,2,Thunderstorm,259
2013-7-21,87,75,63,70,63,59,100,65,40,30.00,29.94,29.88,10,10,5,7,3,,0.00,4,,47
2013-7-22,88,74,62,75,68,63,100,92,51,30.02,29.95,29.84,10,6,0,10,2,,0.13,3,Fog-Rain,72
2013-7-23,87,78,71,77,72,70,100,96,67,29.83,29.68,29.56,10,7,1,16,4,26,1.99,7,Rain-Thunderstorm,156
2013-7-24,82,74,64,74,68,55,100,91,46,29.99,29.65,29.60,10,3,0,14,2,23,0.00,5,Fog,173
2013-7-25,67,62,57,61,55,47,100,77,64,30.11,30.07,30.01,10,10,10,13,7,,0.00,7,Rain,31
2013-7-26,73,66,57,65,61,57,100,92,67,30.07,30.03,30.00,10,9,2,14,5,,0.32,6,Rain,14
2013-7-27,84,70,55,68,60,55,100,94,42,30.09,30.04,29.98,10,3,0,10,2,,0.00,3,Fog,359
2013-7-28,82,71,61,68,65,61,100,85,55,30.04,29.99,29.95,10,10,6,9,3,,0.00,4,,121
2013-7-29,87,78,68,70,66,57,100,82,40,30.05,30.00,29.97,10,10,10,14,3,18,0.00,6,Rain,179
2013-7-30,80,67,54,61,58,54,98,66,42,30.15,30.11,30.06,10,10,5,12,5,20,0.00,2,Rain,324
2013-7-31,82,68,53,63,56,54,100,84,40,30.18,30.12,30.04,10,6,0,7,2,,0.00,2,Fog,46